Time;durP1;ratioP1;P1;durP2;ratioP2;P2;SDS_P1;SDS_P2;PMS_P1;PMS_P2;Temp;Humidity;BMP_temperature;BMP_pressure;BME280_temperature;BME280_humidity;BME280_pressure;Samples;Min_cycle;Max_cycle;Signal;HPM_P1;HPM_P2
2021/10/23 00:00:35;;;;;;;7.90;3.27;;;5.90;99.90;;;;;;5013935;28;20201;-62
2021/10/23 00:03:03;;;;;;;7.93;3.27;;;6.00;99.90;;;;;;5013875;28;20208;-61
2021/10/23 00:05:31;;;;;;;5.83;3.00;;;6.00;99.90;;;;;;5013508;28;20549;-63
2021/10/23 00:07:59;;;;;;;4.07;3.00;;;6.10;99.90;;;;;;5013305;28;20749;-62
2021/10/23 00:10:27;;;;;;;5.37;3.00;;;6.00;99.90;;;;;;5013454;28;20253;-61
2021/10/23 00:12:56;;;;;;;6.70;3.20;;;6.10;99.90;;;;;;5013717;28;20225;-62
2021/10/23 00:15:24;;;;;;;5.60;3.10;;;6.10;99.90;;;;;;5014449;28;20292;-62
2021/10/23 00:17:52;;;;;;;6.90;3.40;;;6.00;99.90;;;;;;5013666;28;20301;-62
2021/10/23 00:20:20;;;;;;;8.63;3.17;;;6.10;99.90;;;;;;5013266;28;20233;-62
2021/10/23 00:22:48;;;;;;;7.83;3.30;;;6.20;99.90;;;;;;5013110;28;20780;-63
2021/10/23 00:25:18;;;;;;;5.87;3.30;;;6.20;99.90;;;;;;5013332;28;20206;-62
2021/10/23 00:27:47;;;;;;;8.77;3.37;;;6.20;99.90;;;;;;5013509;28;20286;-62
2021/10/23 00:30:16;;;;;;;6.37;3.43;;;6.20;99.90;;;;;;5013121;28;20653;-62
2021/10/23 00:32:44;;;;;;;9.13;3.70;;;6.20;99.90;;;;;;5013020;28;20643;-62
2021/10/23 00:35:12;;;;;;;6.10;3.10;;;6.20;99.90;;;;;;5012947;28;20238;-64
2021/10/23 00:37:40;;;;;;;4.57;3.70;;;6.20;99.90;;;;;;5013233;28;20240;-63
2021/10/23 00:40:09;;;;;;;5.40;3.07;;;6.20;99.90;;;;;;5012967;28;20226;-63
2021/10/23 00:42:40;;;;;;;8.33;4.00;;;6.20;99.90;;;;;;5013177;28;20285;-62
2021/10/23 00:45:09;;;;;;;7.90;4.33;;;6.10;99.90;;;;;;5013170;28;20246;-63
2021/10/23 00:47:38;;;;;;;5.57;4.33;;;6.10;99.90;;;;;;5012978;28;20205;-62
2021/10/23 00:50:07;;;;;;;8.53;5.07;;;6.20;99.90;;;;;;5012682;28;20227;-62
2021/10/23 00:52:35;;;;;;;11.33;4.80;;;6.10;99.90;;;;;;5012572;28;20232;-63
2021/10/23 00:55:06;;;;;;;8.50;4.27;;;6.20;99.90;;;;;;5012777;28;20293;-63
2021/10/23 00:57:34;;;;;;;12.23;5.37;;;6.20;99.90;;;;;;5012655;28;20229;-63
2021/10/23 01:00:03;;;;;;;8.20;4.27;;;6.10;99.90;;;;;;5012888;28;20301;-63
2021/10/23 01:02:31;;;;;;;9.53;3.70;;;6.10;99.90;;;;;;5012514;28;20245;-62
2021/10/23 01:05:01;;;;;;;9.93;3.60;;;6.10;99.90;;;;;;5012875;28;20216;-62
2021/10/23 01:07:29;;;;;;;12.90;3.40;;;6.10;99.90;;;;;;5012623;28;20279;-62
2021/10/23 01:09:57;;;;;;;5.70;3.10;;;6.10;99.90;;;;;;5012322;28;20324;-61
2021/10/23 01:12:25;;;;;;;4.77;2.80;;;6.00;99.90;;;;;;5012397;28;20297;-62
2021/10/23 01:14:54;;;;;;;7.60;3.10;;;6.10;99.90;;;;;;5012749;28;20216;-63
2021/10/23 01:17:23;;;;;;;6.13;2.90;;;6.10;99.90;;;;;;5012784;28;20210;-62
2021/10/23 01:19:53;;;;;;;7.37;2.70;;;6.00;99.90;;;;;;5012427;28;20284;-62
2021/10/23 01:22:31;;;;;;;7.40;2.67;;;6.20;99.90;;;;;;5012329;28;20625;-63
2021/10/23 01:24:59;;;;;;;7.03;3.23;;;6.00;99.90;;;;;;5012107;28;20196;-61
2021/10/23 01:27:27;;;;;;;4.60;2.87;;;5.90;99.90;;;;;;5012615;28;20233;-61
2021/10/23 01:29:54;;;;;;;6.07;3.10;;;5.90;99.90;;;;;;5012399;28;20205;-62
2021/10/23 01:32:22;;;;;;;7.80;3.10;;;5.90;99.90;;;;;;5012540;28;20201;-63
2021/10/23 01:34:51;;;;;;;11.73;3.23;;;5.90;99.90;;;;;;5012030;28;20332;-62
2021/10/23 01:37:19;;;;;;;8.40;2.97;;;5.90;99.90;;;;;;5011915;28;20217;-62
2021/10/23 01:39:47;;;;;;;8.40;2.83;;;5.90;99.90;;;;;;5012135;28;20319;-61
2021/10/23 01:42:15;;;;;;;7.47;2.20;;;5.90;99.90;;;;;;5012289;28;20201;-61
2021/10/23 01:44:43;;;;;;;4.93;2.43;;;5.80;99.90;;;;;;5012106;28;20205;-60
2021/10/23 01:47:11;;;;;;;4.87;2.53;;;5.80;99.90;;;;;;5012379;28;20230;-62
2021/10/23 01:49:39;;;;;;;6.77;2.70;;;5.80;99.90;;;;;;5012338;28;20211;-61
2021/10/23 01:52:08;;;;;;;7.93;2.50;;;5.80;99.90;;;;;;5011955;28;20257;-62
2021/10/23 01:54:36;;;;;;;6.67;2.67;;;5.90;99.90;;;;;;5012285;28;20332;-62
2021/10/23 01:57:04;;;;;;;9.93;2.87;;;5.90;99.90;;;;;;5012184;28;20228;-62
2021/10/23 01:59:32;;;;;;;12.53;3.13;;;6.00;99.90;;;;;;5015541;28;20241;-62
2021/10/23 02:02:01;;;;;;;8.27;2.47;;;5.90;99.90;;;;;;5016202;28;20197;-62
2021/10/23 02:04:29;;;;;;;8.57;2.83;;;5.90;99.90;;;;;;5015855;28;20207;-62
2021/10/23 02:06:57;;;;;;;6.63;2.60;;;5.90;99.90;;;;;;5015937;28;20306;-62
2021/10/23 02:09:26;;;;;;;8.03;3.13;;;5.90;99.90;;;;;;5015903;28;20216;-62
2021/10/23 02:11:54;;;;;;;6.00;2.70;;;5.90;99.90;;;;;;5015711;28;20312;-61
2021/10/23 02:14:22;;;;;;;5.87;2.60;;;5.90;99.90;;;;;;5016081;28;20636;-62
2021/10/23 02:16:49;;;;;;;7.63;2.67;;;5.90;99.90;;;;;;5015978;28;20302;-62
2021/10/23 02:19:17;;;;;;;7.63;3.10;;;5.90;99.90;;;;;;5015829;28;20292;-62
2021/10/23 02:21:45;;;;;;;6.13;2.53;;;5.90;99.90;;;;;;5015674;28;20297;-62
2021/10/23 02:24:13;;;;;;;4.83;2.37;;;5.90;99.90;;;;;;5015719;28;20212;-62
2021/10/23 02:26:42;;;;;;;4.87;2.50;;;5.90;99.90;;;;;;5016140;28;20291;-62
2021/10/23 02:29:10;;;;;;;6.70;2.50;;;5.80;99.90;;;;;;5015878;28;20301;-62
2021/10/23 02:31:38;;;;;;;8.63;1.87;;;5.90;99.90;;;;;;5015719;28;20310;-62
2021/10/23 02:34:06;;;;;;;7.70;3.07;;;5.90;99.90;;;;;;5015942;28;20228;-61
2021/10/23 02:36:34;;;;;;;7.13;2.50;;;5.80;99.90;;;;;;5016125;28;20612;-62
2021/10/23 02:39:02;;;;;;;8.07;1.97;;;5.80;99.90;;;;;;5015583;28;20622;-63
2021/10/23 02:41:30;;;;;;;8.97;3.30;;;5.80;99.90;;;;;;5015880;28;20201;-62
2021/10/23 02:43:59;;;;;;;10.43;2.73;;;5.80;99.90;;;;;;5016131;28;20206;-63
2021/10/23 02:46:27;;;;;;;6.23;2.13;;;5.70;99.90;;;;;;5016007;28;20635;-63
2021/10/23 02:48:55;;;;;;;13.23;2.60;;;5.70;99.90;;;;;;5015694;28;20747;-63
2021/10/23 02:51:23;;;;;;;9.80;2.67;;;5.70;99.90;;;;;;5015638;28;20696;-63
2021/10/23 02:53:51;;;;;;;9.50;3.87;;;5.70;99.90;;;;;;5015434;28;20214;-61
2021/10/23 02:56:18;;;;;;;7.77;2.50;;;5.80;99.90;;;;;;5014974;28;20871;-61
2021/10/23 02:58:46;;;;;;;8.83;2.73;;;5.80;99.90;;;;;;5015468;28;20303;-62
2021/10/23 03:01:16;;;;;;;5.83;2.40;;;5.80;99.90;;;;;;5015012;28;20619;-63
2021/10/23 03:03:44;;;;;;;10.10;2.83;;;5.70;99.90;;;;;;5015218;28;20296;-61
2021/10/23 03:06:12;;;;;;;8.70;4.10;;;5.70;99.90;;;;;;5015004;28;20330;-62
2021/10/23 03:08:39;;;;;;;11.17;3.50;;;5.70;99.90;;;;;;5015000;28;20229;-62
2021/10/23 03:11:07;;;;;;;7.50;3.27;;;5.70;99.90;;;;;;5013961;28;20227;-62
2021/10/23 03:13:35;;;;;;;10.83;3.53;;;5.70;99.90;;;;;;5015140;28;20227;-61
2021/10/23 03:16:03;;;;;;;8.73;3.47;;;5.70;99.90;;;;;;5014804;28;20213;-63
2021/10/23 03:18:33;;;;;;;10.73;3.47;;;5.70;99.90;;;;;;5014877;28;20559;-62
2021/10/23 03:21:01;;;;;;;9.97;4.37;;;5.70;99.90;;;;;;5014886;28;20196;-63
2021/10/23 03:23:29;;;;;;;9.80;3.93;;;5.70;99.90;;;;;;5014975;28;20233;-61
2021/10/23 03:25:58;;;;;;;12.33;3.90;;;5.70;99.90;;;;;;5014779;28;20262;-62
2021/10/23 03:28:25;;;;;;;10.20;3.87;;;6.00;99.90;;;;;;5014587;28;20661;-63
2021/10/23 03:30:53;;;;;;;11.60;3.40;;;5.70;99.90;;;;;;5014630;28;20299;-62
2021/10/23 03:33:21;;;;;;;6.93;3.50;;;5.70;99.90;;;;;;5014525;28;20209;-62
2021/10/23 03:35:50;;;;;;;11.20;3.50;;;5.70;99.90;;;;;;5014292;28;20244;-63
2021/10/23 03:38:18;;;;;;;10.93;3.43;;;5.70;99.90;;;;;;5014195;28;20727;-63
2021/10/23 03:40:46;;;;;;;6.77;3.20;;;5.80;99.90;;;;;;5014536;28;20209;-62
2021/10/23 03:43:14;;;;;;;11.10;4.17;;;5.70;99.90;;;;;;5014614;28;20228;-63
2021/10/23 03:45:42;;;;;;;12.10;3.40;;;5.70;99.90;;;;;;5014180;28;20727;-62
2021/10/23 03:48:10;;;;;;;8.90;3.20;;;5.70;99.90;;;;;;5015011;28;20300;-64
2021/10/23 03:50:38;;;;;;;10.80;3.40;;;5.70;99.90;;;;;;5014628;28;20623;-61
2021/10/23 03:53:07;;;;;;;8.07;3.60;;;5.70;99.90;;;;;;5014102;28;20239;-62
2021/10/23 03:55:35;;;;;;;13.80;4.03;;;5.70;99.90;;;;;;5013707;28;20673;-62
2021/10/23 03:58:04;;;;;;;7.47;3.73;;;5.70;99.90;;;;;;5013989;28;20304;-62
2021/10/23 04:00:32;;;;;;;9.40;4.03;;;5.70;99.90;;;;;;5014195;28;20201;-61
2021/10/23 04:03:00;;;;;;;8.97;4.50;;;5.60;99.90;;;;;;5014307;28;20261;-63
2021/10/23 04:05:28;;;;;;;13.37;5.53;;;5.70;99.90;;;;;;5014063;28;20296;-63
2021/10/23 04:07:56;;;;;;;7.60;4.80;;;5.70;99.90;;;;;;5014054;28;20237;-61
2021/10/23 04:10:25;;;;;;;11.17;5.40;;;5.70;99.90;;;;;;5013842;28;20756;-62
2021/10/23 04:12:53;;;;;;;9.27;4.60;;;5.70;99.90;;;;;;5013689;28;20221;-63
2021/10/23 04:15:21;;;;;;;9.40;4.93;;;5.70;99.90;;;;;;5013629;28;20209;-63
2021/10/23 04:17:49;;;;;;;13.20;4.80;;;5.70;99.90;;;;;;5013822;28;20215;-63
2021/10/23 04:20:17;;;;;;;10.13;4.80;;;5.60;99.90;;;;;;5013388;28;20231;-63
2021/10/23 04:22:44;;;;;;;12.77;5.07;;;5.70;99.90;;;;;;5012958;28;20200;-62
2021/10/23 04:25:12;;;;;;;10.63;5.07;;;5.70;99.90;;;;;;5013373;28;20286;-62
2021/10/23 04:27:42;;;;;;;15.40;5.43;;;5.70;99.90;;;;;;5013498;28;20200;-63
2021/10/23 04:30:10;;;;;;;13.40;5.30;;;5.70;99.90;;;;;;5013080;28;20685;-63
2021/10/23 04:32:38;;;;;;;11.17;3.83;;;5.60;99.90;;;;;;5013307;28;20304;-62
2021/10/23 04:35:07;;;;;;;10.27;3.87;;;5.60;99.90;;;;;;5012847;28;20242;-62
2021/10/23 04:37:35;;;;;;;8.10;3.60;;;5.70;99.90;;;;;;5013081;28;20303;-63
2021/10/23 04:40:04;;;;;;;10.33;3.90;;;5.70;99.90;;;;;;5012804;28;20305;-62
2021/10/23 04:42:32;;;;;;;10.43;4.23;;;5.70;99.90;;;;;;5012863;28;20675;-62
2021/10/23 04:45:01;;;;;;;9.37;4.17;;;5.60;99.90;;;;;;5012981;28;20295;-62
2021/10/23 04:47:29;;;;;;;10.27;4.50;;;5.60;99.90;;;;;;5013581;28;20625;-62
2021/10/23 04:49:57;;;;;;;7.80;3.60;;;5.60;99.90;;;;;;5013566;28;20317;-63
2021/10/23 04:52:25;;;;;;;9.13;3.83;;;5.60;99.90;;;;;;5013450;28;20351;-63
2021/10/23 04:54:52;;;;;;;7.20;2.87;;;5.60;99.90;;;;;;5013563;28;20212;-61
2021/10/23 04:57:20;;;;;;;9.20;3.13;;;5.60;99.90;;;;;;5013298;28;20200;-63
2021/10/23 04:59:48;;;;;;;7.53;2.83;;;5.60;99.90;;;;;;5013581;28;20631;-62
2021/10/23 05:02:17;;;;;;;9.10;3.30;;;5.60;99.90;;;;;;5013560;28;20236;-63
2021/10/23 05:04:45;;;;;;;7.70;3.17;;;5.60;99.90;;;;;;5013417;28;20200;-63
2021/10/23 05:07:13;;;;;;;8.10;3.43;;;5.60;99.90;;;;;;5013182;28;20227;-62
2021/10/23 05:09:41;;;;;;;10.40;2.60;;;5.60;99.90;;;;;;5013376;28;20245;-61
2021/10/23 05:12:09;;;;;;;9.30;3.20;;;5.60;99.90;;;;;;5013467;28;20220;-63
2021/10/23 05:14:36;;;;;;;7.93;2.77;;;5.60;99.90;;;;;;5012933;28;20600;-63
2021/10/23 05:17:04;;;;;;;7.13;2.93;;;5.70;99.90;;;;;;5013168;28;20335;-62
2021/10/23 05:19:33;;;;;;;6.87;2.30;;;5.60;99.90;;;;;;5013024;28;20204;-62
2021/10/23 05:22:01;;;;;;;7.57;3.60;;;5.60;99.90;;;;;;5012745;28;20247;-63
2021/10/23 05:24:29;;;;;;;7.57;2.93;;;5.60;99.90;;;;;;5012880;28;20254;-63
2021/10/23 05:26:57;;;;;;;7.30;2.80;;;5.60;99.90;;;;;;5012983;28;20288;-63
2021/10/23 05:29:25;;;;;;;7.20;3.00;;;5.60;99.90;;;;;;5013105;28;20259;-62
2021/10/23 05:31:53;;;;;;;9.43;2.80;;;5.60;99.90;;;;;;5012633;28;20208;-62
2021/10/23 05:34:21;;;;;;;8.33;3.37;;;5.60;99.90;;;;;;5012006;28;20899;-63
2021/10/23 05:36:50;;;;;;;10.73;5.27;;;5.60;99.90;;;;;;5012881;28;20666;-62
2021/10/23 05:39:18;;;;;;;10.63;5.60;;;5.50;99.90;;;;;;5012595;28;20734;-61
2021/10/23 05:41:45;;;;;;;11.37;5.37;;;5.50;99.90;;;;;;5012561;28;20247;-61
2021/10/23 05:44:13;;;;;;;10.03;4.90;;;5.60;99.90;;;;;;5012638;28;20737;-62
2021/10/23 05:46:41;;;;;;;13.13;6.13;;;5.60;99.90;;;;;;5012862;28;20308;-62
2021/10/23 05:49:09;;;;;;;11.87;5.63;;;5.60;99.90;;;;;;5012769;28;20213;-62
2021/10/23 05:51:37;;;;;;;14.67;5.77;;;5.60;99.90;;;;;;5012759;28;20228;-62
2021/10/23 05:54:06;;;;;;;13.60;7.03;;;5.70;99.90;;;;;;5012497;28;20270;-62
2021/10/23 05:56:34;;;;;;;12.10;6.33;;;5.60;99.90;;;;;;5012297;28;20217;-62
2021/10/23 05:59:10;;;;;;;9.27;5.67;;;5.60;99.90;;;;;;5012659;28;20292;-62
2021/10/23 06:01:38;;;;;;;16.33;6.30;;;5.60;99.90;;;;;;5012772;28;20194;-62
2021/10/23 06:04:06;;;;;;;11.27;5.60;;;5.60;99.90;;;;;;5012823;28;20709;-63
2021/10/23 06:06:35;;;;;;;12.10;4.80;;;5.70;99.90;;;;;;5012300;28;20298;-62
2021/10/23 06:09:04;;;;;;;11.17;5.10;;;5.70;99.90;;;;;;5012239;28;20205;-62
2021/10/23 06:11:34;;;;;;;13.07;5.30;;;5.70;99.90;;;;;;5012443;28;20245;-62
2021/10/23 06:14:04;;;;;;;11.17;5.03;;;5.70;99.90;;;;;;5012367;28;20216;-63
2021/10/23 06:16:32;;;;;;;13.97;5.40;;;5.80;99.90;;;;;;5012268;28;20715;-62
2021/10/23 06:19:00;;;;;;;14.80;5.67;;;5.70;99.90;;;;;;5012578;28;20249;-62
2021/10/23 06:21:28;;;;;;;13.77;6.17;;;5.80;99.90;;;;;;5012469;28;20292;-63
2021/10/23 06:23:56;;;;;;;10.47;5.23;;;5.90;99.90;;;;;;5012342;28;20324;-62
2021/10/23 06:26:24;;;;;;;12.00;5.27;;;5.80;99.90;;;;;;5012476;28;20254;-63
2021/10/23 06:28:53;;;;;;;8.47;4.43;;;5.90;99.90;;;;;;5012430;28;20237;-63
2021/10/23 06:31:21;;;;;;;8.33;4.67;;;6.00;99.90;;;;;;5012371;28;20407;-62
2021/10/23 06:33:49;;;;;;;6.87;4.10;;;6.10;99.90;;;;;;5012069;28;20240;-62
2021/10/23 06:36:16;;;;;;;9.97;4.03;;;6.00;99.90;;;;;;5011976;28;20288;-62
2021/10/23 06:38:44;;;;;;;8.20;3.33;;;6.10;99.90;;;;;;5012161;28;20299;-63
2021/10/23 06:41:12;;;;;;;7.67;3.30;;;6.20;99.90;;;;;;5012060;28;20206;-63
2021/10/23 06:43:40;;;;;;;10.07;3.70;;;6.20;99.90;;;;;;5012082;28;20685;-62
2021/10/23 06:46:09;;;;;;;6.47;3.27;;;6.20;99.90;;;;;;5015644;28;20723;-63
2021/10/23 06:48:37;;;;;;;7.90;3.57;;;6.30;99.90;;;;;;5015832;28;20207;-63
2021/10/23 06:51:05;;;;;;;6.77;3.63;;;6.30;99.90;;;;;;5015605;28;20295;-62
2021/10/23 06:53:33;;;;;;;9.93;3.80;;;6.40;99.90;;;;;;5015288;28;20257;-62
2021/10/23 06:56:01;;;;;;;8.83;4.10;;;6.40;99.90;;;;;;5015279;28;20210;-61
2021/10/23 06:58:29;;;;;;;12.03;4.63;;;6.50;99.90;;;;;;5015479;28;20300;-62
2021/10/23 07:00:56;;;;;;;11.23;4.00;;;6.60;99.90;;;;;;5015361;28;20669;-62
2021/10/23 07:03:26;;;;;;;8.00;3.50;;;6.60;99.90;;;;;;5015624;28;20236;-63
2021/10/23 07:05:54;;;;;;;7.17;3.43;;;6.70;99.90;;;;;;5015667;28;20307;-62
2021/10/23 07:08:21;;;;;;;9.20;4.10;;;6.70;99.90;;;;;;5015433;28;20555;-62
2021/10/23 07:10:49;;;;;;;10.20;4.40;;;6.80;99.90;;;;;;5015254;28;20285;-62
2021/10/23 07:13:17;;;;;;;10.00;4.03;;;6.90;99.90;;;;;;5015314;28;20264;-63
2021/10/23 07:15:45;;;;;;;7.20;3.67;;;7.00;99.90;;;;;;5015194;28;20295;-61
2021/10/23 07:18:13;;;;;;;12.07;4.10;;;7.10;99.90;;;;;;5014966;28;20202;-62
2021/10/23 07:20:42;;;;;;;6.67;4.07;;;7.10;99.90;;;;;;5014972;28;20214;-62
2021/10/23 07:23:10;;;;;;;9.60;3.57;;;7.20;99.90;;;;;;5014556;28;20642;-62
2021/10/23 07:25:38;;;;;;;8.90;4.03;;;7.20;99.90;;;;;;5014338;28;20206;-62
2021/10/23 07:28:06;;;;;;;8.70;3.30;;;7.20;99.90;;;;;;5014883;28;20210;-63
2021/10/23 07:30:35;;;;;;;11.50;3.80;;;7.30;99.90;;;;;;5014300;28;20210;-63
2021/10/23 07:33:04;;;;;;;5.73;3.23;;;7.50;99.90;;;;;;5014575;28;20246;-62
2021/10/23 07:35:32;;;;;;;10.43;3.60;;;7.50;99.90;;;;;;5014198;28;20694;-61
2021/10/23 07:38:01;;;;;;;10.43;3.70;;;7.60;99.90;;;;;;5015274;28;20212;-63
2021/10/23 07:40:29;;;;;;;9.10;3.90;;;7.60;99.90;;;;;;5014795;28;20203;-62
2021/10/23 07:42:57;;;;;;;7.93;3.70;;;7.70;99.90;;;;;;5015485;28;20289;-62
2021/10/23 07:45:25;;;;;;;11.23;3.90;;;7.80;99.90;;;;;;5015269;28;20202;-63
2021/10/23 07:47:53;;;;;;;10.07;3.80;;;7.80;99.90;;;;;;5015022;28;20245;-64
2021/10/23 07:50:21;;;;;;;9.07;4.27;;;7.90;99.90;;;;;;5014810;28;20231;-63
2021/10/23 07:52:49;;;;;;;11.67;4.57;;;8.00;99.90;;;;;;5014743;28;20272;-64
2021/10/23 07:55:18;;;;;;;10.93;4.83;;;8.00;99.90;;;;;;5013327;28;20226;-62
2021/10/23 07:57:46;;;;;;;13.60;4.07;;;8.10;99.90;;;;;;5014401;28;20229;-62
2021/10/23 08:00:14;;;;;;;8.53;4.30;;;8.20;99.90;;;;;;5014585;28;20216;-62
2021/10/23 08:02:50;;;;;;;11.03;4.27;;;8.30;99.90;;;;;;5014741;28;20612;-62
2021/10/23 08:05:19;;;;;;;9.47;4.30;;;8.20;99.90;;;;;;5014627;28;20194;-63
2021/10/23 08:07:46;;;;;;;11.10;3.93;;;8.30;99.90;;;;;;5014527;28;20226;-63
2021/10/23 08:10:15;;;;;;;8.87;3.90;;;8.30;99.90;;;;;;5014442;28;20253;-63
2021/10/23 08:12:45;;;;;;;9.80;3.80;;;8.30;99.90;;;;;;5014159;28;20301;-62
2021/10/23 08:15:13;;;;;;;8.17;3.40;;;8.40;99.90;;;;;;5014334;28;20302;-63
2021/10/23 08:17:42;;;;;;;7.47;3.90;;;8.40;99.90;;;;;;5014105;28;20202;-63
2021/10/23 08:20:11;;;;;;;10.43;3.70;;;8.40;99.90;;;;;;5013954;28;20614;-62
2021/10/23 08:22:39;;;;;;;9.53;3.83;;;8.50;99.90;;;;;;5013992;28;20306;-63
2021/10/23 08:25:09;;;;;;;9.87;4.40;;;8.50;99.90;;;;;;5014025;28;20301;-63
2021/10/23 08:27:39;;;;;;;8.87;3.80;;;8.50;99.90;;;;;;5014169;28;20207;-62
2021/10/23 08:30:11;;;;;;;9.47;4.10;;;8.60;99.90;;;;;;5014077;28;20290;-62
2021/10/23 08:32:41;;;;;;;11.63;3.87;;;8.70;99.90;;;;;;5014085;28;20738;-63
2021/10/23 08:35:10;;;;;;;9.43;3.73;;;8.80;99.90;;;;;;5013698;28;20253;-63
2021/10/23 08:37:38;;;;;;;10.73;4.23;;;8.90;99.90;;;;;;5014164;28;20203;-63
2021/10/23 08:40:08;;;;;;;11.03;4.40;;;8.90;99.90;;;;;;5013511;28;20202;-62
2021/10/23 08:42:35;;;;;;;9.13;3.80;;;9.00;99.90;;;;;;5013782;28;20289;-62
2021/10/23 08:45:06;;;;;;;8.60;3.60;;;9.00;99.90;;;;;;5013689;28;20199;-62
2021/10/23 08:47:37;;;;;;;7.30;3.10;;;9.10;99.90;;;;;;5013560;28;20707;-64
2021/10/23 08:50:07;;;;;;;6.30;2.80;;;9.30;99.90;;;;;;5013778;28;20193;-62
2021/10/23 08:52:35;;;;;;;8.47;2.90;;;9.20;99.90;;;;;;5013584;28;20202;-63
2021/10/23 08:55:04;;;;;;;8.20;2.80;;;9.30;99.90;;;;;;5013432;28;20313;-62
2021/10/23 08:57:32;;;;;;;7.70;3.13;;;9.60;99.90;;;;;;5012124;28;20294;-62
2021/10/23 09:00:00;;;;;;;9.20;2.83;;;9.90;99.90;;;;;;5013152;28;20299;-67
2021/10/23 09:02:28;;;;;;;8.73;2.70;;;10.00;99.90;;;;;;5013481;28;20293;-65
2021/10/23 09:04:59;;;;;;;6.97;2.47;;;10.10;99.90;;;;;;5013254;28;20206;-65
2021/10/23 09:07:27;;;;;;;9.07;2.97;;;10.00;99.90;;;;;;5011643;28;20183;-65
2021/10/23 09:09:57;;;;;;;6.03;2.60;;;9.90;99.90;;;;;;5013190;28;20641;-66
2021/10/23 09:12:27;;;;;;;6.40;2.63;;;9.90;99.90;;;;;;5013087;28;20211;-68
2021/10/23 09:15:00;;;;;;;6.57;2.47;;;9.90;99.90;;;;;;5012884;28;20764;-66
2021/10/23 09:17:28;;;;;;;8.87;2.33;;;9.90;99.90;;;;;;5013343;28;20269;-65
2021/10/23 09:20:04;;;;;;;7.23;2.73;;;10.00;99.90;;;;;;5012971;28;20245;-66
2021/10/23 09:22:34;;;;;;;7.83;2.63;;;10.00;99.90;;;;;;5005749;28;20198;-65
2021/10/23 09:25:16;;;;;;;6.27;2.67;;;10.00;99.90;;;;;;5011103;28;20203;-65
2021/10/23 09:28:00;;;;;;;8.23;2.67;;;10.10;99.90;;;;;;5012498;28;20312;-65
2021/10/23 09:33:58;;;;;;;6.27;2.50;;;10.40;99.90;;;;;;5008914;28;20233;-67
2021/10/23 09:36:28;;;;;;;9.73;2.97;;;10.60;99.90;;;;;;5012680;28;20246;-68
2021/10/23 09:39:00;;;;;;;5.97;2.43;;;10.60;99.90;;;;;;5012484;28;20593;-66
2021/10/23 09:41:29;;;;;;;4.90;2.30;;;10.50;99.90;;;;;;5013056;28;20195;-65
2021/10/23 09:44:15;;;;;;;6.10;2.90;;;10.50;99.90;;;;;;5013094;28;20209;-65
2021/10/23 09:46:53;;;;;;;7.70;2.50;;;10.60;99.90;;;;;;5012606;28;20277;-69
2021/10/23 09:49:22;;;;;;;4.93;2.40;;;10.60;99.90;;;;;;5012647;28;20233;-65
2021/10/23 09:52:05;;;;;;;5.37;2.40;;;10.70;99.90;;;;;;5012561;28;20714;-69
2021/10/23 09:54:34;;;;;;;9.23;2.90;;;10.70;99.90;;;;;;5012343;28;20697;-68
2021/10/23 09:57:09;;;;;;;4.90;2.30;;;10.70;99.90;;;;;;5012666;28;20209;-67
2021/10/23 09:59:38;;;;;;;6.43;2.57;;;10.80;99.90;;;;;;5012563;28;20282;-65
2021/10/23 10:02:07;;;;;;;5.70;2.30;;;10.80;99.90;;;;;;5012756;28;20721;-65
2021/10/23 10:04:36;;;;;;;6.00;2.30;;;10.90;99.90;;;;;;5012534;28;20666;-65
2021/10/23 10:07:05;;;;;;;7.03;2.30;;;11.10;99.90;;;;;;5012714;28;20210;-66
2021/10/23 10:09:34;;;;;;;5.43;2.43;;;11.10;99.90;;;;;;5012432;28;20306;-65
2021/10/23 10:12:02;;;;;;;9.43;3.00;;;11.00;99.90;;;;;;5012638;28;20206;-64
2021/10/23 10:14:34;;;;;;;7.70;2.17;;;10.70;99.90;;;;;;5012540;28;20203;-64
2021/10/23 10:17:04;;;;;;;5.77;2.37;;;10.70;99.90;;;;;;5012576;28;20191;-65
2021/10/23 10:19:32;;;;;;;5.77;2.17;;;10.80;99.90;;;;;;5014204;28;20285;-64
2021/10/23 10:22:09;;;;;;;6.60;2.33;;;11.20;99.90;;;;;;5016388;28;20570;-62
2021/10/23 10:24:39;;;;;;;7.37;2.70;;;11.70;99.90;;;;;;5015893;28;20674;-62
2021/10/23 10:27:10;;;;;;;3.67;2.00;;;11.90;99.90;;;;;;5016137;28;20329;-64
2021/10/23 10:29:44;;;;;;;7.27;2.37;;;12.00;99.90;;;;;;5015908;28;20277;-65
2021/10/23 10:32:20;;;;;;;7.53;2.30;;;12.10;99.90;;;;;;5016236;28;20245;-65
2021/10/23 10:35:19;;;;;;;3.83;1.83;;;12.00;99.90;;;;;;5015745;28;20261;-64
2021/10/23 10:38:22;;;;;;;3.60;2.30;;;11.90;99.90;;;;;;5015601;28;20745;-62
2021/10/23 10:42:42;;;;;;;8.10;2.27;;;12.00;99.90;;;;;;5016028;28;20298;-62
2021/10/23 10:44:09;;;;;;;8.07;2.40;;;12.20;99.90;;;;;;5015539;28;20214;-67
2021/10/23 10:47:06;;;;;;;5.20;2.23;;;12.50;99.90;;;;;;5015512;28;20199;-69
2021/10/23 10:49:53;;;;;;;10.20;2.75;;;12.80;99.90;;;;;;5012556;28;20238;-65
2021/10/23 10:53:03;;;;;;;8.60;2.33;;;12.80;99.90;;;;;;5014281;28;20204;-65
2021/10/23 10:55:41;;;;;;;6.03;2.10;;;12.90;99.90;;;;;;5012833;28;20222;-65
2021/10/23 10:58:10;;;;;;;6.50;2.53;;;12.90;99.90;;;;;;5015133;28;20629;-69
2021/10/23 11:01:17;;;;;;;4.27;2.00;;;12.50;99.90;;;;;;5015464;28;20297;-68
2021/10/23 11:04:05;;;;;;;5.88;2.60;;;12.30;99.90;;;;;;5014478;28;20458;-65
2021/10/23 11:07:03;;;;;;;4.87;1.90;;;12.00;99.90;;;;;;5015684;28;20237;-68
2021/10/23 11:09:42;;;;;;;4.32;1.77;;;12.10;99.90;;;;;;5015464;28;20222;-65
2021/10/23 11:12:36;;;;;;;4.43;2.30;;;12.30;99.90;;;;;;5015216;28;20273;-63
2021/10/23 11:15:04;;;;;;;5.80;2.03;;;12.50;99.90;;;;;;5015147;28;20195;-63
2021/10/23 11:17:39;;;;;;;7.13;2.00;;;12.60;99.90;;;;;;5015487;28;20257;-64
2021/10/23 11:20:12;;;;;;;6.43;2.17;;;12.70;99.90;;;;;;5015226;28;20286;-63
2021/10/23 11:22:48;;;;;;;6.07;2.10;;;12.70;99.90;;;;;;5015031;28;20190;-64
2021/10/23 11:25:16;;;;;;;8.67;2.57;;;12.60;99.90;;;;;;5015041;28;20222;-64
2021/10/23 11:27:47;;;;;;;5.43;2.20;;;12.50;99.90;;;;;;5015100;28;20214;-64
2021/10/23 11:30:23;;;;;;;7.33;2.40;;;12.10;99.90;;;;;;5014256;28;20226;-64
2021/10/23 11:32:57;;;;;;;7.00;2.33;;;11.80;99.90;;;;;;5015055;28;20202;-65
2021/10/23 11:35:31;;;;;;;7.57;2.20;;;11.60;99.90;;;;;;5014523;28;20284;-64
2021/10/23 11:37:59;;;;;;;4.93;1.77;;;11.50;99.90;;;;;;5014815;28;20237;-65
2021/10/23 11:40:28;;;;;;;4.93;2.00;;;11.30;99.90;;;;;;5014755;28;20211;-64
2021/10/23 11:42:57;;;;;;;8.83;1.83;;;11.30;99.90;;;;;;5011760;28;20302;-63
2021/10/23 11:45:27;;;;;;;6.57;2.10;;;11.30;99.90;;;;;;5014581;28;20210;-64
2021/10/23 11:48:01;;;;;;;4.10;2.10;;;11.40;99.90;;;;;;5014337;28;20183;-63
2021/10/23 11:50:32;;;;;;;4.70;2.60;;;11.30;99.90;;;;;;5014360;28;20265;-64
2021/10/23 11:53:02;;;;;;;4.13;2.07;;;11.20;99.90;;;;;;5014503;28;20234;-64
2021/10/23 11:55:33;;;;;;;5.03;2.07;;;11.10;99.90;;;;;;5014496;28;20293;-64
2021/10/23 11:58:04;;;;;;;5.93;2.07;;;11.00;99.90;;;;;;5014035;28;20218;-64
2021/10/23 12:00:38;;;;;;;5.13;1.80;;;10.90;99.90;;;;;;5014274;28;20225;-64
2021/10/23 12:03:09;;;;;;;3.63;1.77;;;11.20;99.90;;;;;;5014307;28;20402;-64
2021/10/23 12:05:47;;;;;;;7.77;2.33;;;11.40;99.90;;;;;;5012291;28;20627;-64
2021/10/23 12:08:17;;;;;;;6.23;1.97;;;11.70;99.90;;;;;;5014005;28;20670;-64
2021/10/23 12:11:08;;;;;;;5.57;1.90;;;11.90;99.90;;;;;;5013805;28;20808;-64
2021/10/23 12:13:47;;;;;;;6.27;2.17;;;12.00;99.90;;;;;;5013803;28;20257;-64
2021/10/23 12:16:18;;;;;;;4.47;1.60;;;11.90;99.90;;;;;;4999730;28;20679;-64
2021/10/23 12:18:47;;;;;;;5.53;2.00;;;11.70;99.90;;;;;;4995351;28;20279;-63
2021/10/23 12:21:17;;;;;;;8.27;2.17;;;11.50;99.90;;;;;;4994484;28;20658;-64
2021/10/23 12:23:52;;;;;;;6.43;1.60;;;11.50;99.90;;;;;;4994087;28;20616;-64
2021/10/23 12:26:24;;;;;;;5.40;1.83;;;11.40;99.90;;;;;;4994055;28;20237;-64
2021/10/23 12:28:58;;;;;;;6.67;2.03;;;11.30;99.90;;;;;;4994235;28;20279;-63
2021/10/23 12:31:27;;;;;;;5.90;2.13;;;11.30;99.90;;;;;;4994222;28;20249;-64
2021/10/23 12:34:00;;;;;;;7.50;1.93;;;11.20;99.90;;;;;;4993605;28;20680;-64
2021/10/23 12:36:28;;;;;;;5.70;1.83;;;11.00;99.90;;;;;;4993997;28;20261;-63
2021/10/23 12:38:56;;;;;;;4.07;1.53;;;11.00;99.90;;;;;;4993988;28;20293;-64
2021/10/23 12:41:24;;;;;;;5.00;1.80;;;11.00;99.90;;;;;;5001195;28;20221;-64
2021/10/23 12:43:52;;;;;;;4.80;1.73;;;10.90;99.90;;;;;;5013143;28;20876;-65
2021/10/23 12:46:22;;;;;;;5.20;2.30;;;11.00;99.90;;;;;;5013800;28;20245;-64
2021/10/23 12:52:46;;;;;;;6.73;2.23;;;10.80;99.90;;;;;;4999536;28;20214;-64
2021/10/23 12:55:15;;;;;;;6.93;1.80;;;10.80;99.90;;;;;;5013388;28;20654;-64
2021/10/23 12:57:43;;;;;;;4.20;1.50;;;10.80;99.90;;;;;;5013580;28;20218;-64
2021/10/23 13:00:13;;;;;;;4.90;1.97;;;10.80;99.90;;;;;;5013438;28;20289;-64
2021/10/23 13:02:43;;;;;;;5.73;1.97;;;10.80;99.90;;;;;;5013487;28;20229;-64
2021/10/23 13:05:12;;;;;;;4.57;1.80;;;10.80;99.90;;;;;;5013495;28;20253;-65
2021/10/23 13:07:41;;;;;;;4.47;2.33;;;10.90;99.90;;;;;;5013242;28;20203;-63
2021/10/23 13:10:10;;;;;;;5.97;2.33;;;11.00;99.90;;;;;;5013377;28;20198;-65
2021/10/23 13:12:40;;;;;;;4.13;1.83;;;11.00;99.90;;;;;;5013223;28;20249;-64